createdAt,value
2023-05-06T00:01:56.305Z,54.06
2023-05-06T00:04:24.527Z,54.28
2023-05-06T00:06:52.758Z,54.20
2023-05-06T00:09:21.178Z,54.15
2023-05-06T00:11:48.992Z,54.25
2023-05-06T00:14:18.014Z,54.42
2023-05-06T00:16:47.684Z,54.47
2023-05-06T00:19:15.947Z,54.40
2023-05-06T00:21:43.855Z,54.57
2023-05-06T00:24:12.174Z,54.71
2023-05-06T00:26:39.982Z,54.59
2023-05-06T00:29:07.738Z,54.48
2023-05-06T00:31:35.665Z,54.84
2023-05-06T00:34:03.533Z,54.78
2023-05-06T00:36:31.665Z,54.65
2023-05-06T00:38:59.611Z,54.73
2023-05-06T00:41:34.166Z,54.64
2023-05-06T00:44:02.045Z,54.72
2023-05-06T00:46:30.306Z,54.62
2023-05-06T00:48:58.212Z,54.73
2023-05-06T00:51:26.720Z,54.79
2023-05-06T00:53:54.634Z,54.71
2023-05-06T00:56:22.722Z,54.79
2023-05-06T00:58:50.735Z,54.89
2023-05-06T01:01:18.954Z,54.65
2023-05-06T01:03:47.870Z,54.88
2023-05-06T01:06:24.818Z,54.43
2023-05-06T01:09:27.086Z,54.42
2023-05-06T01:12:36.600Z,54.33
2023-05-06T01:15:08.769Z,54.20
2023-05-06T01:17:44.966Z,54.34
2023-05-06T01:20:15.227Z,54.44
2023-05-06T01:22:43.307Z,54.13
2023-05-06T01:25:21.554Z,54.07
2023-05-06T01:27:50.580Z,54.50
2023-05-06T01:30:19.867Z,54.54
2023-05-06T01:33:00.920Z,54.39
2023-05-06T01:35:46.357Z,54.30
2023-05-06T01:38:42.180Z,54.49
2023-05-06T01:41:17.911Z,54.40
2023-05-06T01:43:47.613Z,54.48
2023-05-06T01:46:22.125Z,54.38
2023-05-06T01:48:54.012Z,54.50
2023-05-06T01:51:24.816Z,54.58
2023-05-06T01:53:52.927Z,54.38
2023-05-06T01:56:20.737Z,54.59
2023-05-06T01:58:48.529Z,54.59
2023-05-06T02:01:16.276Z,54.45
2023-05-06T02:03:44.274Z,54.38
2023-05-06T02:06:12.505Z,54.59
2023-05-06T02:08:43.784Z,54.55
2023-05-06T02:11:16.369Z,54.75
2023-05-06T02:13:44.986Z,55.00
2023-05-06T02:16:13.603Z,54.69
2023-05-06T02:18:41.575Z,54.92
2023-05-06T02:21:10.530Z,54.90
2023-05-06T02:23:38.852Z,54.84
2023-05-06T02:26:06.710Z,54.96
2023-05-06T02:28:34.527Z,54.78
2023-05-06T02:31:02.279Z,54.71
2023-05-06T02:33:30.061Z,54.84
2023-05-06T02:35:57.798Z,54.79
2023-05-06T02:38:26.891Z,54.70
2023-05-06T02:40:54.588Z,54.85
2023-05-06T02:43:23.106Z,54.72
2023-05-06T02:45:50.951Z,54.93
2023-05-06T02:48:19.877Z,54.90
2023-05-06T02:50:47.631Z,54.75
2023-05-06T02:53:15.385Z,54.93
2023-05-06T02:55:43.161Z,55.17
2023-05-06T02:58:10.913Z,54.81
2023-05-06T03:00:38.735Z,54.83
2023-05-06T03:03:06.571Z,54.82
2023-05-06T03:05:34.396Z,55.07
2023-05-06T03:08:02.463Z,54.83
2023-05-06T03:10:30.832Z,55.06
2023-05-06T03:12:59.566Z,54.91
2023-05-06T03:15:28.429Z,55.21
2023-05-06T03:17:56.380Z,55.00
2023-05-06T03:20:25.068Z,55.31
2023-05-06T03:22:56.626Z,55.23
2023-05-06T03:25:25.327Z,55.20
2023-05-06T03:27:54.050Z,55.01
2023-05-06T03:30:23.821Z,54.90
2023-05-06T03:32:56.576Z,55.16
2023-05-06T03:35:30.222Z,55.08
2023-05-06T03:38:00.449Z,55.04
2023-05-06T03:40:36.062Z,54.89
2023-05-06T03:43:04.402Z,55.06
2023-05-06T03:45:32.243Z,55.17
2023-05-06T03:48:02.928Z,55.28
2023-05-06T03:50:33.387Z,55.04
2023-05-06T03:53:01.219Z,55.12
2023-05-06T03:55:31.460Z,55.38
2023-05-06T03:58:01.006Z,55.34
2023-05-06T04:00:28.769Z,55.16
2023-05-06T04:02:56.768Z,55.20
2023-05-06T04:05:31.503Z,55.19
2023-05-06T04:07:59.373Z,55.36
2023-05-06T04:10:27.243Z,55.57
2023-05-06T04:13:00.785Z,55.68
2023-05-06T04:15:35.573Z,55.55
2023-05-06T04:18:07.964Z,55.39
2023-05-06T04:20:38.050Z,55.79
2023-05-06T04:23:05.889Z,55.62
2023-05-06T04:25:35.875Z,55.69
2023-05-06T04:28:04.046Z,55.85
2023-05-06T04:30:32.486Z,55.82
2023-05-06T04:33:00.343Z,55.80
2023-05-06T04:35:28.468Z,55.87
2023-05-06T04:37:58.189Z,55.83
2023-05-06T04:40:30.750Z,55.77
2023-05-06T04:42:58.545Z,55.91
2023-05-06T04:45:29.856Z,56.09
2023-05-06T04:47:58.043Z,56.23
2023-05-06T04:50:26.471Z,56.01
2023-05-06T04:52:56.075Z,56.17
2023-05-06T04:55:24.169Z,56.24
2023-05-06T04:57:54.040Z,56.16
2023-05-06T05:00:22.611Z,56.27
2023-05-06T05:02:50.559Z,56.14
2023-05-06T05:05:20.297Z,56.02
2023-05-06T05:07:52.104Z,56.28
2023-05-06T05:10:20.399Z,56.17
2023-05-06T05:12:50.607Z,56.40
2023-05-06T05:15:20.430Z,56.44
2023-05-06T05:17:48.787Z,56.40
2023-05-06T05:20:16.778Z,56.28
2023-05-06T05:22:44.584Z,56.31
2023-05-06T05:25:13.015Z,56.40
2023-05-06T05:27:42.988Z,56.62
2023-05-06T05:30:11.329Z,56.55
2023-05-06T05:32:40.137Z,56.84
2023-05-06T05:35:10.962Z,56.74
2023-05-06T05:37:43.274Z,56.82
2023-05-06T05:40:11.740Z,56.97
2023-05-06T05:42:41.795Z,57.00
2023-05-06T05:45:18.361Z,57.05
2023-05-06T05:47:48.545Z,57.14
2023-05-06T05:50:17.561Z,57.06
2023-05-06T05:52:46.367Z,57.11
2023-05-06T05:55:14.563Z,57.13
2023-05-06T05:57:45.349Z,57.22
2023-05-06T06:00:14.608Z,57.30
2023-05-06T06:02:45.130Z,57.42
2023-05-06T06:05:15.756Z,57.40
2023-05-06T06:07:44.597Z,57.23
2023-05-06T06:10:14.080Z,57.13
2023-05-06T06:12:44.154Z,57.11
2023-05-06T06:15:21.737Z,57.27
2023-05-06T06:17:52.755Z,57.66
2023-05-06T06:20:20.774Z,57.85
2023-05-06T06:22:49.080Z,57.88
2023-05-06T06:25:21.464Z,58.18
2023-05-06T06:27:49.154Z,58.19
2023-05-06T06:30:19.052Z,58.17
2023-05-06T06:32:56.994Z,58.01
2023-05-06T06:35:25.044Z,58.14
2023-05-06T06:37:56.938Z,58.13
2023-05-06T06:40:24.686Z,58.17
2023-05-06T06:42:52.367Z,58.12
2023-05-06T06:45:40.555Z,58.31
2023-05-06T06:48:09.537Z,58.28
2023-05-06T06:50:37.246Z,58.09
2023-05-06T06:53:06.338Z,58.20
2023-05-06T06:55:34.509Z,58.03
2023-05-06T06:58:02.965Z,57.73
2023-05-06T07:00:30.763Z,57.59
2023-05-06T07:03:04.786Z,57.56
2023-05-06T07:05:32.536Z,57.49
2023-05-06T07:08:01.484Z,57.22
2023-05-06T07:10:29.341Z,57.03
2023-05-06T07:12:58.367Z,56.67
2023-05-06T07:15:26.234Z,56.59
2023-05-06T07:17:54.007Z,56.65
2023-05-06T07:20:22.040Z,56.26
2023-05-06T07:22:50.276Z,56.03
2023-05-06T07:25:18.122Z,55.44
2023-05-06T07:27:46.246Z,55.19
2023-05-06T07:30:14.260Z,54.94
2023-05-06T07:32:42.331Z,54.64
2023-05-06T07:35:10.414Z,54.50
2023-05-06T07:37:40.606Z,54.44
2023-05-06T07:40:09.180Z,54.17
2023-05-06T07:42:37.036Z,54.23
2023-05-06T07:45:05.979Z,53.95
2023-05-06T07:47:35.114Z,53.71
2023-05-06T07:50:04.999Z,53.59
2023-05-06T07:52:34.838Z,53.54
2023-05-06T07:55:02.589Z,53.18
2023-05-06T07:57:30.410Z,53.23
2023-05-06T07:59:58.610Z,52.67
2023-05-06T08:02:27.223Z,52.31
2023-05-06T08:04:55.116Z,52.46
2023-05-06T08:07:22.892Z,51.88
2023-05-06T08:09:50.571Z,51.78
2023-05-06T08:12:18.336Z,51.52
2023-05-06T08:14:46.676Z,51.04
2023-05-06T08:17:14.681Z,50.72
2023-05-06T08:19:42.367Z,50.67
2023-05-06T08:22:12.266Z,50.96
2023-05-06T08:24:41.033Z,50.73
2023-05-06T08:27:09.036Z,50.65
2023-05-06T08:29:38.005Z,50.11
2023-05-06T08:32:06.632Z,50.32
2023-05-06T08:34:35.226Z,49.79
2023-05-06T08:37:03.194Z,49.81
2023-05-06T08:39:31.511Z,49.48
2023-05-06T08:42:03.070Z,49.19
2023-05-06T08:44:31.453Z,48.88
2023-05-06T08:47:00.604Z,48.74
2023-05-06T08:49:28.788Z,48.55
2023-05-06T08:51:57.139Z,48.12
2023-05-06T08:54:26.673Z,47.91
2023-05-06T08:56:57.643Z,47.51
2023-05-06T08:59:30.920Z,47.43
2023-05-06T09:02:02.123Z,47.16
2023-05-06T09:04:30.696Z,47.25
2023-05-06T09:06:59.480Z,46.75
2023-05-06T09:09:27.253Z,46.18
2023-05-06T09:11:57.356Z,45.88
2023-05-06T09:14:25.706Z,45.93
2023-05-06T09:16:55.575Z,45.36
2023-05-06T09:19:25.676Z,45.19
2023-05-06T09:21:53.493Z,44.81
2023-05-06T09:24:21.709Z,44.52
2023-05-06T09:26:51.700Z,44.21
2023-05-06T09:29:21.494Z,44.04
2023-05-06T09:31:52.459Z,43.30
2023-05-06T09:34:22.550Z,43.49
2023-05-06T09:36:52.347Z,43.07
2023-05-06T09:39:28.385Z,42.85
2023-05-06T09:41:56.300Z,42.83
2023-05-06T09:44:26.096Z,42.81
2023-05-06T09:46:53.908Z,42.42
2023-05-06T09:49:22.051Z,42.27
2023-05-06T09:51:51.680Z,42.56
2023-05-06T09:54:20.328Z,42.24
2023-05-06T09:56:48.763Z,42.26
2023-05-06T09:59:18.529Z,41.97
2023-05-06T10:01:47.100Z,42.00
2023-05-06T10:04:17.495Z,41.67
2023-05-06T10:06:49.062Z,41.65
2023-05-06T10:09:18.920Z,41.50
2023-05-06T10:11:48.413Z,40.84
2023-05-06T10:14:17.863Z,40.75
2023-05-06T10:16:49.121Z,40.59
2023-05-06T10:19:23.002Z,41.49
2023-05-06T10:22:03.870Z,41.07
2023-05-06T10:24:46.512Z,41.05
2023-05-06T10:27:23.399Z,41.03
2023-05-06T10:29:58.119Z,40.44
2023-05-06T10:32:31.727Z,39.95
2023-05-06T10:35:28.856Z,39.97
2023-05-06T10:37:57.205Z,40.14
2023-05-06T10:40:25.162Z,39.48
2023-05-06T10:42:52.948Z,39.33
2023-05-06T10:45:23.567Z,39.22
2023-05-06T10:47:57.666Z,39.19
2023-05-06T10:50:27.506Z,38.87
2023-05-06T10:52:59.017Z,38.59
2023-05-06T10:55:36.717Z,38.20
2023-05-06T10:58:16.453Z,38.74
2023-05-06T11:00:55.442Z,38.21
2023-05-06T11:03:24.445Z,38.49
2023-05-06T11:05:52.884Z,38.05
2023-05-06T11:08:27.218Z,37.72
2023-05-06T11:10:55.604Z,37.86
2023-05-06T11:13:29.250Z,37.49
2023-05-06T11:15:58.650Z,37.79
2023-05-06T11:18:29.456Z,37.72
2023-05-06T11:21:03.419Z,37.62
2023-05-06T11:23:49.686Z,38.66
2023-05-06T11:26:18.420Z,37.88
2023-05-06T11:28:51.584Z,37.60
2023-05-06T11:31:30.217Z,37.41
2023-05-06T11:34:03.636Z,37.34
2023-05-06T11:36:32.663Z,37.37
2023-05-06T11:39:08.172Z,37.03
2023-05-06T11:41:42.822Z,37.06
2023-05-06T11:44:13.205Z,36.76
2023-05-06T11:46:43.592Z,36.72
2023-05-06T11:49:14.510Z,36.43
2023-05-06T11:51:42.264Z,36.20
2023-05-06T11:54:11.171Z,36.23
2023-05-06T11:56:56.735Z,35.68
2023-05-06T11:59:42.833Z,35.60
2023-05-06T12:02:14.184Z,35.72
2023-05-06T12:04:47.808Z,35.53
2023-05-06T12:07:18.601Z,35.41
2023-05-06T12:09:49.022Z,35.05
2023-05-06T12:12:22.326Z,35.30
2023-05-06T12:14:52.148Z,35.13
2023-05-06T12:17:20.428Z,34.74
2023-05-06T12:19:48.241Z,34.75
2023-05-06T12:22:26.957Z,35.07
2023-05-06T12:24:54.888Z,34.75
2023-05-06T12:27:36.250Z,34.30
2023-05-06T12:30:04.894Z,34.94
2023-05-06T12:32:32.987Z,34.99
2023-05-06T12:35:05.737Z,35.13
2023-05-06T12:37:33.682Z,35.15
2023-05-06T12:40:01.547Z,34.62
2023-05-06T12:42:29.362Z,34.18
2023-05-06T12:44:57.116Z,34.69
2023-05-06T12:47:26.237Z,34.55
2023-05-06T12:50:00.995Z,34.21
2023-05-06T12:52:30.225Z,34.12
2023-05-06T12:55:00.780Z,33.73
2023-05-06T12:57:28.503Z,33.55
2023-05-06T12:59:56.327Z,33.57
2023-05-06T13:02:24.423Z,33.65
2023-05-06T13:04:52.206Z,33.32
2023-05-06T13:07:20.234Z,33.16
2023-05-06T13:09:49.776Z,33.15
2023-05-06T13:12:19.960Z,33.28
2023-05-06T13:14:48.653Z,33.84
2023-05-06T13:17:16.478Z,33.71
2023-05-06T13:19:44.271Z,33.77
2023-05-06T13:22:12.215Z,33.37
2023-05-06T13:24:42.165Z,33.18
2023-05-06T13:27:10.214Z,33.03
2023-05-06T13:29:39.592Z,33.05
2023-05-06T13:32:08.794Z,32.89
2023-05-06T13:34:37.271Z,32.82
2023-05-06T13:37:05.420Z,32.74
2023-05-06T13:39:33.539Z,32.69
2023-05-06T13:42:02.936Z,32.48
2023-05-06T13:44:31.762Z,32.35
2023-05-06T13:46:59.582Z,32.05
2023-05-06T13:49:27.441Z,32.07
2023-05-06T13:51:55.192Z,31.95
2023-05-06T13:54:23.022Z,31.67
2023-05-06T13:56:52.569Z,31.77
2023-05-06T13:59:20.534Z,31.97
2023-05-06T14:01:50.061Z,31.88
2023-05-06T14:04:17.861Z,32.08
2023-05-06T14:06:47.117Z,31.84
2023-05-06T14:09:14.865Z,31.85
2023-05-06T14:11:44.182Z,31.69
2023-05-06T14:14:11.885Z,31.70
2023-05-06T14:16:39.693Z,31.61
2023-05-06T14:19:07.481Z,31.53
2023-05-06T14:21:35.345Z,31.62
2023-05-06T14:24:05.096Z,31.62
2023-05-06T14:26:35.030Z,31.70
2023-05-06T14:29:02.819Z,31.48
2023-05-06T14:31:32.700Z,31.43
2023-05-06T14:34:01.745Z,31.16
2023-05-06T14:36:29.549Z,31.07
2023-05-06T14:38:57.365Z,31.00
2023-05-06T14:41:25.228Z,30.96
2023-05-06T14:43:52.945Z,30.91
2023-05-06T14:46:21.208Z,30.72
2023-05-06T14:48:49.034Z,30.85
2023-05-06T14:51:16.746Z,30.92
2023-05-06T14:53:45.253Z,30.95
2023-05-06T14:56:16.100Z,31.17
2023-05-06T14:58:44.926Z,30.77
2023-05-06T15:01:13.681Z,30.57
2023-05-06T15:03:43.578Z,30.33
2023-05-06T15:06:12.918Z,30.31
2023-05-06T15:08:42.132Z,30.18
2023-05-06T15:11:09.921Z,30.01
2023-05-06T15:13:37.780Z,29.91
2023-05-06T15:16:06.867Z,29.94
2023-05-06T15:18:38.027Z,30.00
2023-05-06T15:21:08.368Z,29.96
2023-05-06T15:23:36.246Z,29.91
2023-05-06T15:26:04.026Z,29.98
2023-05-06T15:28:31.868Z,29.85
2023-05-06T15:31:01.978Z,30.07
2023-05-06T15:33:34.209Z,29.92
2023-05-06T15:36:01.912Z,30.21
2023-05-06T15:38:45.760Z,30.03
2023-05-06T15:41:13.884Z,30.00
2023-05-06T15:43:41.657Z,30.07
2023-05-06T15:46:09.549Z,29.93
2023-05-06T15:48:38.809Z,30.25
2023-05-06T15:51:06.642Z,30.15
2023-05-06T15:53:34.435Z,30.26
2023-05-06T15:56:13.562Z,30.15
2023-05-06T15:58:46.154Z,30.30
2023-05-06T16:01:16.450Z,30.11
2023-05-06T16:03:46.680Z,30.07
2023-05-06T16:06:15.664Z,30.20
2023-05-06T16:08:43.394Z,30.12
2023-05-06T16:11:11.158Z,30.01
2023-05-06T16:13:38.957Z,30.07
2023-05-06T16:16:06.835Z,30.06
2023-05-06T16:18:36.475Z,29.95
2023-05-06T16:21:04.528Z,30.03
2023-05-06T16:23:32.566Z,30.04
2023-05-06T16:26:01.133Z,30.17
2023-05-06T16:28:29.014Z,30.02
2023-05-06T16:30:57.301Z,30.08
2023-05-06T16:33:25.802Z,30.14
2023-05-06T16:35:53.611Z,29.96
2023-05-06T16:38:21.804Z,29.86
2023-05-06T16:40:53.189Z,29.89
2023-05-06T16:43:20.904Z,29.95
2023-05-06T16:45:48.752Z,30.10
2023-05-06T16:48:18.664Z,29.99
2023-05-06T16:50:48.359Z,30.08
2023-05-06T16:53:17.405Z,30.00
2023-05-06T16:55:49.529Z,29.94
2023-05-06T16:58:18.923Z,30.12
2023-05-06T17:00:46.711Z,30.10
2023-05-06T17:03:14.702Z,30.14
2023-05-06T17:05:42.600Z,30.24
2023-05-06T17:08:11.999Z,30.12
2023-05-06T17:10:39.828Z,30.19
2023-05-06T17:13:07.885Z,30.30
2023-05-06T17:15:37.508Z,30.33
2023-05-06T17:18:05.625Z,30.04
2023-05-06T17:20:40.676Z,30.22
2023-05-06T17:23:17.654Z,30.42
2023-05-06T17:25:45.389Z,30.43
2023-05-06T17:28:13.088Z,30.44
2023-05-06T17:30:41.040Z,30.43
2023-05-06T17:33:08.815Z,30.82
2023-05-06T17:35:38.202Z,30.70
2023-05-06T17:38:12.906Z,30.74
2023-05-06T17:40:43.697Z,30.75
2023-05-06T17:43:13.395Z,30.76
2023-05-06T17:45:41.694Z,30.58
2023-05-06T17:48:09.572Z,30.58
2023-05-06T17:50:37.399Z,30.81
2023-05-06T17:53:05.220Z,30.68
2023-05-06T17:55:33.030Z,30.60
2023-05-06T17:58:02.261Z,30.67
2023-05-06T18:00:30.079Z,30.81
2023-05-06T18:02:58.064Z,30.66
2023-05-06T18:05:26.325Z,30.77
2023-05-06T18:07:54.198Z,30.82
2023-05-06T18:10:22.009Z,30.82
2023-05-06T18:12:50.360Z,30.79
2023-05-06T18:15:18.421Z,30.96
2023-05-06T18:17:47.927Z,31.03
2023-05-06T18:20:15.886Z,31.31
2023-05-06T18:22:43.587Z,32.36
2023-05-06T18:25:11.738Z,33.13
2023-05-06T18:27:41.519Z,33.97
2023-05-06T18:30:11.545Z,34.47
2023-05-06T18:32:39.334Z,35.08
2023-05-06T18:35:07.688Z,35.83
2023-05-06T18:37:35.432Z,36.30
2023-05-06T18:40:04.303Z,36.88
2023-05-06T18:42:37.940Z,37.21
2023-05-06T18:45:10.780Z,37.44
2023-05-06T18:47:40.188Z,37.57
2023-05-06T18:50:09.292Z,37.78
2023-05-06T18:52:37.592Z,38.14
2023-05-06T18:55:09.590Z,38.28
2023-05-06T18:57:38.008Z,38.42
2023-05-06T19:00:07.223Z,38.62
2023-05-06T19:02:35.809Z,38.52
2023-05-06T19:05:03.702Z,38.80
2023-05-06T19:07:31.989Z,38.70
2023-05-06T19:09:59.712Z,38.83
2023-05-06T19:12:27.457Z,39.06
2023-05-06T19:14:55.173Z,39.53
2023-05-06T19:17:22.917Z,40.04
2023-05-06T19:19:51.775Z,40.39
2023-05-06T19:22:19.528Z,40.26
2023-05-06T19:24:48.926Z,40.52
2023-05-06T19:27:18.053Z,40.63
2023-05-06T19:29:46.625Z,40.61
2023-05-06T19:32:14.398Z,40.53
2023-05-06T19:34:42.213Z,40.57
2023-05-06T19:37:10.688Z,40.83
2023-05-06T19:39:38.381Z,40.87
2023-05-06T19:42:06.552Z,41.29
2023-05-06T19:44:35.456Z,41.40
2023-05-06T19:47:03.167Z,41.48
2023-05-06T19:49:32.147Z,41.97
2023-05-06T19:52:00.569Z,41.97
2023-05-06T19:54:28.364Z,42.19
2023-05-06T19:56:56.226Z,42.15
2023-05-06T19:59:24.076Z,42.26
2023-05-06T20:01:53.342Z,42.60
2023-05-06T20:04:21.105Z,42.74
2023-05-06T20:06:48.954Z,42.96
2023-05-06T20:09:16.702Z,43.20
2023-05-06T20:11:44.691Z,43.09
2023-05-06T20:14:13.353Z,43.33
2023-05-06T20:16:47.348Z,43.28
2023-05-06T20:19:17.730Z,43.65
2023-05-06T20:21:45.565Z,43.88
2023-05-06T20:24:13.547Z,44.04
2023-05-06T20:26:44.568Z,43.80
2023-05-06T20:29:12.511Z,43.94
2023-05-06T20:31:40.509Z,44.20
2023-05-06T20:34:08.290Z,44.40
2023-05-06T20:36:36.017Z,44.61
2023-05-06T20:39:04.008Z,44.63
2023-05-06T20:41:33.104Z,44.78
2023-05-06T20:44:03.294Z,44.82
2023-05-06T20:46:32.923Z,44.91
2023-05-06T20:49:00.639Z,44.86
2023-05-06T20:51:28.381Z,44.84
2023-05-06T20:53:57.781Z,44.79
2023-05-06T20:56:27.208Z,44.79
2023-05-06T20:58:55.718Z,44.79
2023-05-06T21:01:25.407Z,44.92
2023-05-06T21:04:01.393Z,44.80
2023-05-06T21:06:29.197Z,45.07
2023-05-06T21:08:57.971Z,45.20
2023-05-06T21:11:27.724Z,45.27
2023-05-06T21:13:57.726Z,45.32
2023-05-06T21:16:25.745Z,45.48
2023-05-06T21:18:53.552Z,45.65
2023-05-06T21:21:24.658Z,45.70
2023-05-06T21:23:54.817Z,45.67
2023-05-06T21:26:22.625Z,45.92
2023-05-06T21:28:53.309Z,46.20
2023-05-06T21:31:25.205Z,46.03
2023-05-06T21:33:59.441Z,46.30
2023-05-06T21:36:27.249Z,46.41
2023-05-06T21:39:06.725Z,46.52
2023-05-06T21:41:36.122Z,46.40
2023-05-06T21:44:08.335Z,46.53
2023-05-06T21:46:37.809Z,46.21
2023-05-06T21:49:05.996Z,46.08
2023-05-06T21:51:35.328Z,46.15
2023-05-06T21:54:05.164Z,46.20
2023-05-06T21:56:35.331Z,45.74
2023-05-06T21:59:03.157Z,45.68
2023-05-06T22:01:32.073Z,45.51
2023-05-06T22:04:00.468Z,45.61
2023-05-06T22:06:29.121Z,45.69
2023-05-06T22:08:56.855Z,45.36
2023-05-06T22:11:26.862Z,45.68
2023-05-06T22:13:54.610Z,45.49
2023-05-06T22:16:22.419Z,45.42
2023-05-06T22:18:51.936Z,45.67
2023-05-06T22:21:19.805Z,45.49
2023-05-06T22:23:47.795Z,45.60
2023-05-06T22:26:15.696Z,45.82
2023-05-06T22:28:43.431Z,45.94
2023-05-06T22:31:11.330Z,46.12
2023-05-06T22:33:39.075Z,46.28
2023-05-06T22:36:07.364Z,46.22
2023-05-06T22:38:35.270Z,46.60
2023-05-06T22:41:03.403Z,46.62
2023-05-06T22:43:31.198Z,46.69
2023-05-06T22:45:58.934Z,46.89
2023-05-06T22:48:27.012Z,46.96
2023-05-06T22:50:56.327Z,47.27
2023-05-06T22:53:24.740Z,47.19
2023-05-06T22:55:52.509Z,47.10
2023-05-06T22:58:20.281Z,47.30
2023-05-06T23:00:48.396Z,47.61
2023-05-06T23:03:19.726Z,47.77
2023-05-06T23:05:47.644Z,47.54
2023-05-06T23:08:16.386Z,47.63
2023-05-06T23:10:44.226Z,47.88
2023-05-06T23:13:12.106Z,47.79
2023-05-06T23:15:40.329Z,47.90
2023-05-06T23:18:08.291Z,48.32
2023-05-06T23:20:36.124Z,48.21
2023-05-06T23:23:03.930Z,48.08
2023-05-06T23:25:31.657Z,48.36
2023-05-06T23:27:59.368Z,48.73
2023-05-06T23:30:27.388Z,48.67
2023-05-06T23:32:55.340Z,48.67
2023-05-06T23:35:23.151Z,48.58
2023-05-06T23:37:50.948Z,48.98
2023-05-06T23:40:18.651Z,48.82
2023-05-06T23:42:46.410Z,49.08
2023-05-06T23:45:14.385Z,49.11
2023-05-06T23:47:42.246Z,48.91
2023-05-06T23:50:10.686Z,49.18
2023-05-06T23:52:39.210Z,49.09
2023-05-06T23:55:08.070Z,48.88
2023-05-06T23:57:35.939Z,48.87
